sensor_id;sensor_type;location;lat;lon;timestamp;P1;durP1;ratioP1;P2;durP2;ratioP2
10246;SDS011;5168;47.854;7.944;2024-02-16T00:00:16;2.10;;;1.90;;
10246;SDS011;5168;47.854;7.944;2024-02-16T00:02:42;2.00;;;1.80;;
10246;SDS011;5168;47.854;7.944;2024-02-16T00:05:08;1.60;;;1.50;;
10246;SDS011;5168;47.854;7.944;2024-02-16T00:07:36;3.30;;;1.80;;
10246;SDS011;5168;47.854;7.944;2024-02-16T00:10:02;2.40;;;1.60;;
10246;SDS011;5168;47.854;7.944;2024-02-16T00:12:29;1.67;;;1.57;;
10246;SDS011;5168;47.854;7.944;2024-02-16T00:14:56;1.80;;;1.70;;
10246;SDS011;5168;47.854;7.944;2024-02-16T00:17:22;1.60;;;1.50;;
10246;SDS011;5168;47.854;7.944;2024-02-16T00:19:47;1.50;;;1.40;;
10246;SDS011;5168;47.854;7.944;2024-02-16T00:22:13;1.50;;;1.40;;
10246;SDS011;5168;47.854;7.944;2024-02-16T00:24:38;1.60;;;1.50;;
10246;SDS011;5168;47.854;7.944;2024-02-16T00:27:04;1.60;;;1.50;;
10246;SDS011;5168;47.854;7.944;2024-02-16T00:29:30;1.60;;;1.50;;
10246;SDS011;5168;47.854;7.944;2024-02-16T00:31:56;1.60;;;1.50;;
10246;SDS011;5168;47.854;7.944;2024-02-16T00:34:24;1.60;;;1.50;;
10246;SDS011;5168;47.854;7.944;2024-02-16T00:36:50;2.43;;;1.73;;
10246;SDS011;5168;47.854;7.944;2024-02-16T00:39:15;2.33;;;1.63;;
10246;SDS011;5168;47.854;7.944;2024-02-16T00:41:41;1.50;;;1.40;;
10246;SDS011;5168;47.854;7.944;2024-02-16T00:44:07;1.63;;;1.53;;
10246;SDS011;5168;47.854;7.944;2024-02-16T00:46:32;1.70;;;1.60;;
10246;SDS011;5168;47.854;7.944;2024-02-16T00:49:01;1.67;;;1.57;;
10246;SDS011;5168;47.854;7.944;2024-02-16T00:51:27;1.70;;;1.60;;
10246;SDS011;5168;47.854;7.944;2024-02-16T00:53:52;1.50;;;1.40;;
10246;SDS011;5168;47.854;7.944;2024-02-16T00:56:18;1.90;;;1.80;;
10246;SDS011;5168;47.854;7.944;2024-02-16T00:58:44;2.00;;;1.80;;
10246;SDS011;5168;47.854;7.944;2024-02-16T01:01:10;1.60;;;1.50;;
10246;SDS011;5168;47.854;7.944;2024-02-16T01:03:37;2.00;;;1.50;;
10246;SDS011;5168;47.854;7.944;2024-02-16T01:06:04;1.57;;;1.47;;
10246;SDS011;5168;47.854;7.944;2024-02-16T01:08:30;1.70;;;1.60;;
10246;SDS011;5168;47.854;7.944;2024-02-16T01:10:56;1.83;;;1.70;;
10246;SDS011;5168;47.854;7.944;2024-02-16T01:13:22;1.50;;;1.40;;
10246;SDS011;5168;47.854;7.944;2024-02-16T01:15:47;1.63;;;1.53;;
10246;SDS011;5168;47.854;7.944;2024-02-16T01:18:13;1.80;;;1.70;;
10246;SDS011;5168;47.854;7.944;2024-02-16T01:20:39;1.60;;;1.50;;
10246;SDS011;5168;47.854;7.944;2024-02-16T01:23:05;1.70;;;1.60;;
10246;SDS011;5168;47.854;7.944;2024-02-16T01:25:31;1.63;;;1.53;;
10246;SDS011;5168;47.854;7.944;2024-02-16T01:27:57;1.80;;;1.70;;
10246;SDS011;5168;47.854;7.944;2024-02-16T01:30:23;1.63;;;1.53;;
10246;SDS011;5168;47.854;7.944;2024-02-16T01:32:49;1.60;;;1.50;;
10246;SDS011;5168;47.854;7.944;2024-02-16T01:35:15;2.00;;;1.80;;
10246;SDS011;5168;47.854;7.944;2024-02-16T01:37:42;1.67;;;1.57;;
10246;SDS011;5168;47.854;7.944;2024-02-16T01:40:08;1.90;;;1.73;;
10246;SDS011;5168;47.854;7.944;2024-02-16T01:42:46;1.70;;;1.60;;
10246;SDS011;5168;47.854;7.944;2024-02-16T01:45:12;1.60;;;1.50;;
10246;SDS011;5168;47.854;7.944;2024-02-16T01:47:38;1.77;;;1.67;;
10246;SDS011;5168;47.854;7.944;2024-02-16T01:50:04;1.60;;;1.50;;
10246;SDS011;5168;47.854;7.944;2024-02-16T01:52:31;1.53;;;1.43;;
10246;SDS011;5168;47.854;7.944;2024-02-16T01:54:59;2.03;;;1.67;;
10246;SDS011;5168;47.854;7.944;2024-02-16T01:57:27;1.77;;;1.67;;
10246;SDS011;5168;47.854;7.944;2024-02-16T01:59:53;1.60;;;1.50;;
10246;SDS011;5168;47.854;7.944;2024-02-16T02:02:18;1.60;;;1.50;;
10246;SDS011;5168;47.854;7.944;2024-02-16T02:04:44;1.87;;;1.53;;
10246;SDS011;5168;47.854;7.944;2024-02-16T02:07:14;1.90;;;1.70;;
10246;SDS011;5168;47.854;7.944;2024-02-16T02:09:40;1.83;;;1.60;;
10246;SDS011;5168;47.854;7.944;2024-02-16T02:12:07;1.80;;;1.70;;
10246;SDS011;5168;47.854;7.944;2024-02-16T02:14:33;1.40;;;1.30;;
10246;SDS011;5168;47.854;7.944;2024-02-16T02:16:59;3.63;;;1.47;;
10246;SDS011;5168;47.854;7.944;2024-02-16T02:19:25;1.73;;;1.63;;
10246;SDS011;5168;47.854;7.944;2024-02-16T02:21:51;1.70;;;1.60;;
10246;SDS011;5168;47.854;7.944;2024-02-16T02:24:17;1.80;;;1.70;;
10246;SDS011;5168;47.854;7.944;2024-02-16T02:26:44;3.00;;;1.80;;
10246;SDS011;5168;47.854;7.944;2024-02-16T02:29:10;1.60;;;1.50;;
10246;SDS011;5168;47.854;7.944;2024-02-16T02:31:36;1.90;;;1.80;;
10246;SDS011;5168;47.854;7.944;2024-02-16T02:34:02;1.80;;;1.70;;
10246;SDS011;5168;47.854;7.944;2024-02-16T02:36:30;2.20;;;1.80;;
10246;SDS011;5168;47.854;7.944;2024-02-16T02:38:56;1.90;;;1.80;;
10246;SDS011;5168;47.854;7.944;2024-02-16T02:41:22;1.80;;;1.70;;
10246;SDS011;5168;47.854;7.944;2024-02-16T02:43:48;1.87;;;1.77;;
10246;SDS011;5168;47.854;7.944;2024-02-16T02:46:17;2.00;;;1.80;;
10246;SDS011;5168;47.854;7.944;2024-02-16T02:48:43;1.70;;;1.60;;
10246;SDS011;5168;47.854;7.944;2024-02-16T02:51:09;1.60;;;1.50;;
10246;SDS011;5168;47.854;7.944;2024-02-16T02:53:35;1.80;;;1.70;;
10246;SDS011;5168;47.854;7.944;2024-02-16T02:56:01;1.63;;;1.53;;
10246;SDS011;5168;47.854;7.944;2024-02-16T02:58:27;1.93;;;1.80;;
10246;SDS011;5168;47.854;7.944;2024-02-16T03:00:53;1.70;;;1.60;;
10246;SDS011;5168;47.854;7.944;2024-02-16T03:03:19;1.77;;;1.67;;
10246;SDS011;5168;47.854;7.944;2024-02-16T03:05:45;1.90;;;1.80;;
10246;SDS011;5168;47.854;7.944;2024-02-16T03:08:11;1.90;;;1.80;;
10246;SDS011;5168;47.854;7.944;2024-02-16T03:10:37;1.90;;;1.80;;
10246;SDS011;5168;47.854;7.944;2024-02-16T03:13:04;2.07;;;1.87;;
10246;SDS011;5168;47.854;7.944;2024-02-16T03:15:31;1.90;;;1.80;;
10246;SDS011;5168;47.854;7.944;2024-02-16T03:17:58;1.90;;;1.80;;
10246;SDS011;5168;47.854;7.944;2024-02-16T03:20:24;2.00;;;1.70;;
10246;SDS011;5168;47.854;7.944;2024-02-16T03:22:50;1.90;;;1.80;;
10246;SDS011;5168;47.854;7.944;2024-02-16T03:25:16;1.80;;;1.70;;
10246;SDS011;5168;47.854;7.944;2024-02-16T03:27:42;2.07;;;1.80;;
10246;SDS011;5168;47.854;7.944;2024-02-16T03:30:08;1.70;;;1.60;;
10246;SDS011;5168;47.854;7.944;2024-02-16T03:32:35;1.73;;;1.63;;
10246;SDS011;5168;47.854;7.944;2024-02-16T03:35:01;1.90;;;1.80;;
10246;SDS011;5168;47.854;7.944;2024-02-16T03:37:27;3.33;;;1.80;;
10246;SDS011;5168;47.854;7.944;2024-02-16T03:39:53;2.00;;;1.90;;
10246;SDS011;5168;47.854;7.944;2024-02-16T03:42:19;1.80;;;1.70;;
10246;SDS011;5168;47.854;7.944;2024-02-16T03:44:44;2.10;;;1.90;;
10246;SDS011;5168;47.854;7.944;2024-02-16T03:47:10;1.60;;;1.50;;
10246;SDS011;5168;47.854;7.944;2024-02-16T03:49:36;1.80;;;1.70;;
10246;SDS011;5168;47.854;7.944;2024-02-16T03:52:02;1.93;;;1.73;;
10246;SDS011;5168;47.854;7.944;2024-02-16T03:54:28;1.80;;;1.70;;
10246;SDS011;5168;47.854;7.944;2024-02-16T03:56:54;1.70;;;1.60;;
10246;SDS011;5168;47.854;7.944;2024-02-16T03:59:20;2.07;;;1.87;;
10246;SDS011;5168;47.854;7.944;2024-02-16T04:01:46;2.00;;;1.90;;
10246;SDS011;5168;47.854;7.944;2024-02-16T04:04:11;1.97;;;1.73;;
10246;SDS011;5168;47.854;7.944;2024-02-16T04:06:38;1.73;;;1.63;;
10246;SDS011;5168;47.854;7.944;2024-02-16T04:09:04;1.90;;;1.80;;
10246;SDS011;5168;47.854;7.944;2024-02-16T04:11:33;2.57;;;2.00;;
10246;SDS011;5168;47.854;7.944;2024-02-16T04:14:00;2.00;;;1.80;;
10246;SDS011;5168;47.854;7.944;2024-02-16T04:16:26;1.90;;;1.80;;
10246;SDS011;5168;47.854;7.944;2024-02-16T04:18:52;1.87;;;1.73;;
10246;SDS011;5168;47.854;7.944;2024-02-16T04:21:20;1.77;;;1.67;;
10246;SDS011;5168;47.854;7.944;2024-02-16T04:23:45;2.53;;;1.80;;
10246;SDS011;5168;47.854;7.944;2024-02-16T04:26:11;2.13;;;1.93;;
10246;SDS011;5168;47.854;7.944;2024-02-16T04:28:37;2.00;;;1.90;;
10246;SDS011;5168;47.854;7.944;2024-02-16T04:31:02;2.37;;;2.13;;
10246;SDS011;5168;47.854;7.944;2024-02-16T04:33:28;2.50;;;1.70;;
10246;SDS011;5168;47.854;7.944;2024-02-16T04:35:54;2.00;;;1.80;;
10246;SDS011;5168;47.854;7.944;2024-02-16T04:38:19;2.10;;;2.00;;
10246;SDS011;5168;47.854;7.944;2024-02-16T04:40:45;1.63;;;1.53;;
10246;SDS011;5168;47.854;7.944;2024-02-16T04:43:11;1.97;;;1.70;;
10246;SDS011;5168;47.854;7.944;2024-02-16T04:45:37;2.47;;;1.90;;
10246;SDS011;5168;47.854;7.944;2024-02-16T04:48:03;3.33;;;1.70;;
10246;SDS011;5168;47.854;7.944;2024-02-16T04:50:30;1.63;;;1.53;;
10246;SDS011;5168;47.854;7.944;2024-02-16T04:52:57;2.07;;;1.87;;
10246;SDS011;5168;47.854;7.944;2024-02-16T04:55:22;1.90;;;1.80;;
10246;SDS011;5168;47.854;7.944;2024-02-16T04:57:48;3.20;;;2.10;;
10246;SDS011;5168;47.854;7.944;2024-02-16T05:00:14;2.63;;;2.00;;
10246;SDS011;5168;47.854;7.944;2024-02-16T05:02:40;2.33;;;1.97;;
10246;SDS011;5168;47.854;7.944;2024-02-16T05:05:06;2.03;;;1.90;;
10246;SDS011;5168;47.854;7.944;2024-02-16T05:07:32;2.57;;;2.07;;
10246;SDS011;5168;47.854;7.944;2024-02-16T05:09:58;2.10;;;1.90;;
10246;SDS011;5168;47.854;7.944;2024-02-16T05:12:24;2.10;;;1.90;;
10246;SDS011;5168;47.854;7.944;2024-02-16T05:14:51;1.90;;;1.80;;
10246;SDS011;5168;47.854;7.944;2024-02-16T05:17:18;2.63;;;2.07;;
10246;SDS011;5168;47.854;7.944;2024-02-16T05:19:45;2.00;;;1.90;;
10246;SDS011;5168;47.854;7.944;2024-02-16T05:22:11;2.03;;;1.93;;
10246;SDS011;5168;47.854;7.944;2024-02-16T05:24:36;3.00;;;1.90;;
10246;SDS011;5168;47.854;7.944;2024-02-16T05:27:02;1.80;;;1.70;;
10246;SDS011;5168;47.854;7.944;2024-02-16T05:29:28;2.13;;;1.93;;
10246;SDS011;5168;47.854;7.944;2024-02-16T05:31:53;2.10;;;2.00;;
10246;SDS011;5168;47.854;7.944;2024-02-16T05:34:19;1.70;;;1.60;;
10246;SDS011;5168;47.854;7.944;2024-02-16T05:36:45;1.97;;;1.87;;
10246;SDS011;5168;47.854;7.944;2024-02-16T05:39:12;2.27;;;2.07;;
10246;SDS011;5168;47.854;7.944;2024-02-16T05:41:52;3.30;;;2.10;;
10246;SDS011;5168;47.854;7.944;2024-02-16T05:44:18;2.70;;;2.00;;
10246;SDS011;5168;47.854;7.944;2024-02-16T05:46:44;3.83;;;2.03;;
10246;SDS011;5168;47.854;7.944;2024-02-16T05:49:10;2.97;;;2.00;;
10246;SDS011;5168;47.854;7.944;2024-02-16T05:51:39;2.70;;;1.90;;
10246;SDS011;5168;47.854;7.944;2024-02-16T05:54:05;3.17;;;1.83;;
10246;SDS011;5168;47.854;7.944;2024-02-16T05:56:32;2.20;;;2.00;;
10246;SDS011;5168;47.854;7.944;2024-02-16T05:58:59;2.77;;;2.23;;
10246;SDS011;5168;47.854;7.944;2024-02-16T06:01:25;3.60;;;2.00;;
10246;SDS011;5168;47.854;7.944;2024-02-16T06:03:51;2.43;;;2.07;;
10246;SDS011;5168;47.854;7.944;2024-02-16T06:06:17;2.50;;;2.03;;
10246;SDS011;5168;47.854;7.944;2024-02-16T06:08:42;2.00;;;1.90;;
10246;SDS011;5168;47.854;7.944;2024-02-16T06:11:08;2.20;;;2.00;;
10246;SDS011;5168;47.854;7.944;2024-02-16T06:13:34;3.93;;;2.07;;
10246;SDS011;5168;47.854;7.944;2024-02-16T06:16:00;3.43;;;2.30;;
10246;SDS011;5168;47.854;7.944;2024-02-16T06:18:26;2.27;;;2.07;;
10246;SDS011;5168;47.854;7.944;2024-02-16T06:20:54;2.50;;;1.97;;
10246;SDS011;5168;47.854;7.944;2024-02-16T06:23:20;3.57;;;2.07;;
10246;SDS011;5168;47.854;7.944;2024-02-16T06:25:46;2.23;;;1.90;;
10246;SDS011;5168;47.854;7.944;2024-02-16T06:28:11;2.33;;;2.17;;
10246;SDS011;5168;47.854;7.944;2024-02-16T06:30:37;2.40;;;2.20;;
10246;SDS011;5168;47.854;7.944;2024-02-16T06:33:03;2.77;;;1.90;;
10246;SDS011;5168;47.854;7.944;2024-02-16T06:35:29;2.00;;;1.90;;
10246;SDS011;5168;47.854;7.944;2024-02-16T06:37:55;2.23;;;2.03;;
10246;SDS011;5168;47.854;7.944;2024-02-16T06:40:20;2.60;;;2.30;;
10246;SDS011;5168;47.854;7.944;2024-02-16T06:42:46;2.00;;;1.90;;
10246;SDS011;5168;47.854;7.944;2024-02-16T06:45:12;3.03;;;1.87;;
10246;SDS011;5168;47.854;7.944;2024-02-16T06:47:38;2.23;;;2.03;;
10246;SDS011;5168;47.854;7.944;2024-02-16T06:50:04;2.27;;;2.00;;
10246;SDS011;5168;47.854;7.944;2024-02-16T06:52:30;5.20;;;2.10;;
10246;SDS011;5168;47.854;7.944;2024-02-16T06:54:55;2.73;;;2.40;;
10246;SDS011;5168;47.854;7.944;2024-02-16T06:57:21;2.13;;;2.03;;
10246;SDS011;5168;47.854;7.944;2024-02-16T06:59:46;2.20;;;2.00;;
10246;SDS011;5168;47.854;7.944;2024-02-16T07:02:12;2.20;;;2.00;;
10246;SDS011;5168;47.854;7.944;2024-02-16T07:04:40;2.47;;;2.20;;
10246;SDS011;5168;47.854;7.944;2024-02-16T07:07:05;2.57;;;2.00;;
10246;SDS011;5168;47.854;7.944;2024-02-16T07:09:31;5.83;;;2.57;;
10246;SDS011;5168;47.854;7.944;2024-02-16T07:11:57;3.33;;;2.00;;
10246;SDS011;5168;47.854;7.944;2024-02-16T07:14:23;3.50;;;1.90;;
10246;SDS011;5168;47.854;7.944;2024-02-16T07:16:49;2.20;;;2.00;;
10246;SDS011;5168;47.854;7.944;2024-02-16T07:19:15;2.63;;;1.87;;
10246;SDS011;5168;47.854;7.944;2024-02-16T07:21:41;3.30;;;2.00;;
10246;SDS011;5168;47.854;7.944;2024-02-16T07:24:06;3.50;;;2.50;;
10246;SDS011;5168;47.854;7.944;2024-02-16T07:26:33;2.27;;;1.90;;
10246;SDS011;5168;47.854;7.944;2024-02-16T07:29:00;2.57;;;2.37;;
10246;SDS011;5168;47.854;7.944;2024-02-16T07:31:30;2.47;;;2.10;;
10246;SDS011;5168;47.854;7.944;2024-02-16T07:33:59;2.03;;;1.83;;
10246;SDS011;5168;47.854;7.944;2024-02-16T07:36:25;2.33;;;2.13;;
10246;SDS011;5168;47.854;7.944;2024-02-16T07:38:51;2.30;;;2.10;;
10246;SDS011;5168;47.854;7.944;2024-02-16T07:41:16;1.90;;;1.80;;
10246;SDS011;5168;47.854;7.944;2024-02-16T07:43:42;2.60;;;2.13;;
10246;SDS011;5168;47.854;7.944;2024-02-16T07:46:08;3.20;;;2.17;;
10246;SDS011;5168;47.854;7.944;2024-02-16T07:48:34;2.67;;;2.20;;
10246;SDS011;5168;47.854;7.944;2024-02-16T07:51:00;3.67;;;2.10;;
10246;SDS011;5168;47.854;7.944;2024-02-16T07:53:27;2.97;;;2.27;;
10246;SDS011;5168;47.854;7.944;2024-02-16T07:55:53;4.00;;;2.20;;
10246;SDS011;5168;47.854;7.944;2024-02-16T07:58:19;3.30;;;2.10;;
10246;SDS011;5168;47.854;7.944;2024-02-16T08:00:45;4.30;;;2.30;;
10246;SDS011;5168;47.854;7.944;2024-02-16T08:03:10;4.90;;;1.93;;
10246;SDS011;5168;47.854;7.944;2024-02-16T08:05:36;2.63;;;2.17;;
10246;SDS011;5168;47.854;7.944;2024-02-16T08:08:02;2.40;;;2.17;;
10246;SDS011;5168;47.854;7.944;2024-02-16T08:10:28;2.00;;;1.90;;
10246;SDS011;5168;47.854;7.944;2024-02-16T08:12:54;3.70;;;2.03;;
10246;SDS011;5168;47.854;7.944;2024-02-16T08:15:20;2.17;;;1.90;;
10246;SDS011;5168;47.854;7.944;2024-02-16T08:17:49;2.70;;;1.90;;
10246;SDS011;5168;47.854;7.944;2024-02-16T08:20:15;6.77;;;2.33;;
10246;SDS011;5168;47.854;7.944;2024-02-16T08:22:41;2.43;;;2.20;;
10246;SDS011;5168;47.854;7.944;2024-02-16T08:25:07;2.70;;;1.90;;
10246;SDS011;5168;47.854;7.944;2024-02-16T08:27:33;2.37;;;2.00;;
10246;SDS011;5168;47.854;7.944;2024-02-16T08:29:59;4.33;;;2.10;;
10246;SDS011;5168;47.854;7.944;2024-02-16T08:32:25;2.57;;;2.30;;
10246;SDS011;5168;47.854;7.944;2024-02-16T08:34:50;4.17;;;2.13;;
10246;SDS011;5168;47.854;7.944;2024-02-16T08:37:16;3.83;;;2.33;;
10246;SDS011;5168;47.854;7.944;2024-02-16T08:39:42;2.37;;;2.17;;
10246;SDS011;5168;47.854;7.944;2024-02-16T08:42:08;3.03;;;2.10;;
10246;SDS011;5168;47.854;7.944;2024-02-16T08:44:34;3.03;;;2.00;;
10246;SDS011;5168;47.854;7.944;2024-02-16T08:47:00;3.03;;;2.00;;
10246;SDS011;5168;47.854;7.944;2024-02-16T08:49:26;2.70;;;1.90;;
10246;SDS011;5168;47.854;7.944;2024-02-16T08:51:52;3.83;;;2.63;;
10246;SDS011;5168;47.854;7.944;2024-02-16T08:54:18;6.87;;;2.27;;
10246;SDS011;5168;47.854;7.944;2024-02-16T08:56:44;3.23;;;2.10;;
10246;SDS011;5168;47.854;7.944;2024-02-16T08:59:10;3.70;;;2.10;;
10246;SDS011;5168;47.854;7.944;2024-02-16T09:01:36;3.83;;;2.20;;
10246;SDS011;5168;47.854;7.944;2024-02-16T09:04:04;3.33;;;2.10;;
10246;SDS011;5168;47.854;7.944;2024-02-16T09:06:30;4.53;;;2.30;;
10246;SDS011;5168;47.854;7.944;2024-02-16T09:08:56;2.77;;;1.77;;
10246;SDS011;5168;47.854;7.944;2024-02-16T09:11:22;3.27;;;2.03;;
10246;SDS011;5168;47.854;7.944;2024-02-16T09:13:48;6.10;;;2.20;;
10246;SDS011;5168;47.854;7.944;2024-02-16T09:16:14;4.60;;;2.00;;
10246;SDS011;5168;47.854;7.944;2024-02-16T09:18:39;3.00;;;1.67;;
10246;SDS011;5168;47.854;7.944;2024-02-16T09:21:05;3.20;;;1.90;;
10246;SDS011;5168;47.854;7.944;2024-02-16T09:23:31;3.03;;;1.90;;
10246;SDS011;5168;47.854;7.944;2024-02-16T09:25:58;1.93;;;1.67;;
10246;SDS011;5168;47.854;7.944;2024-02-16T09:28:24;5.50;;;2.20;;
10246;SDS011;5168;47.854;7.944;2024-02-16T09:30:50;5.80;;;2.27;;
10246;SDS011;5168;47.854;7.944;2024-02-16T09:33:16;1.83;;;1.70;;
10246;SDS011;5168;47.854;7.944;2024-02-16T09:35:41;6.30;;;1.73;;
10246;SDS011;5168;47.854;7.944;2024-02-16T09:38:07;4.37;;;1.83;;
10246;SDS011;5168;47.854;7.944;2024-02-16T09:40:35;2.70;;;1.70;;
10246;SDS011;5168;47.854;7.944;2024-02-16T09:43:01;2.97;;;1.93;;
10246;SDS011;5168;47.854;7.944;2024-02-16T09:45:28;4.07;;;1.90;;
10246;SDS011;5168;47.854;7.944;2024-02-16T09:47:55;3.23;;;1.63;;
10246;SDS011;5168;47.854;7.944;2024-02-16T09:50:21;2.33;;;1.60;;
10246;SDS011;5168;47.854;7.944;2024-02-16T09:52:48;4.87;;;1.73;;
10246;SDS011;5168;47.854;7.944;2024-02-16T09:55:15;5.50;;;1.87;;
10246;SDS011;5168;47.854;7.944;2024-02-16T09:57:42;6.43;;;1.87;;
10246;SDS011;5168;47.854;7.944;2024-02-16T10:00:08;4.53;;;1.80;;
10246;SDS011;5168;47.854;7.944;2024-02-16T10:02:44;5.57;;;1.90;;
10246;SDS011;5168;47.854;7.944;2024-02-16T10:07:36;4.77;;;1.97;;
10246;SDS011;5168;47.854;7.944;2024-02-16T10:10:02;2.93;;;1.80;;
10246;SDS011;5168;47.854;7.944;2024-02-16T10:12:29;4.87;;;2.13;;
10246;SDS011;5168;47.854;7.944;2024-02-16T10:14:55;3.03;;;1.70;;
10246;SDS011;5168;47.854;7.944;2024-02-16T10:17:21;3.23;;;1.93;;
10246;SDS011;5168;47.854;7.944;2024-02-16T10:19:55;3.37;;;2.20;;
10246;SDS011;5168;47.854;7.944;2024-02-16T10:22:21;4.10;;;1.90;;
10246;SDS011;5168;47.854;7.944;2024-02-16T10:24:48;3.13;;;1.70;;
10246;SDS011;5168;47.854;7.944;2024-02-16T10:27:15;3.40;;;1.87;;
10246;SDS011;5168;47.854;7.944;2024-02-16T10:29:43;5.30;;;1.90;;
10246;SDS011;5168;47.854;7.944;2024-02-16T10:32:10;4.77;;;2.00;;
10246;SDS011;5168;47.854;7.944;2024-02-16T10:34:37;6.83;;;2.03;;
10246;SDS011;5168;47.854;7.944;2024-02-16T10:37:05;4.93;;;1.93;;
10246;SDS011;5168;47.854;7.944;2024-02-16T10:39:32;5.43;;;1.90;;
10246;SDS011;5168;47.854;7.944;2024-02-16T10:41:58;4.63;;;1.80;;
10246;SDS011;5168;47.854;7.944;2024-02-16T10:44:27;4.43;;;2.03;;
10246;SDS011;5168;47.854;7.944;2024-02-16T10:46:53;3.40;;;1.90;;
10246;SDS011;5168;47.854;7.944;2024-02-16T10:49:21;2.63;;;2.00;;
10246;SDS011;5168;47.854;7.944;2024-02-16T10:51:49;8.07;;;2.47;;
10246;SDS011;5168;47.854;7.944;2024-02-16T10:54:19;5.30;;;2.47;;
10246;SDS011;5168;47.854;7.944;2024-02-16T10:56:53;5.03;;;2.60;;
10246;SDS011;5168;47.854;7.944;2024-02-16T10:59:19;5.47;;;2.50;;
10246;SDS011;5168;47.854;7.944;2024-02-16T11:01:45;4.30;;;2.70;;
10246;SDS011;5168;47.854;7.944;2024-02-16T11:04:11;3.63;;;2.10;;
10246;SDS011;5168;47.854;7.944;2024-02-16T11:09:25;3.20;;;2.13;;
10246;SDS011;5168;47.854;7.944;2024-02-16T11:11:55;4.43;;;2.43;;
10246;SDS011;5168;47.854;7.944;2024-02-16T11:14:33;4.13;;;1.97;;
10246;SDS011;5168;47.854;7.944;2024-02-16T11:17:12;4.07;;;2.63;;
10246;SDS011;5168;47.854;7.944;2024-02-16T11:19:41;4.80;;;2.50;;
10246;SDS011;5168;47.854;7.944;2024-02-16T11:22:08;4.13;;;2.43;;
10246;SDS011;5168;47.854;7.944;2024-02-16T11:24:36;6.37;;;2.37;;
10246;SDS011;5168;47.854;7.944;2024-02-16T11:27:09;4.03;;;2.40;;
10246;SDS011;5168;47.854;7.944;2024-02-16T11:29:36;5.90;;;2.40;;
10246;SDS011;5168;47.854;7.944;2024-02-16T11:32:03;2.90;;;2.17;;
10246;SDS011;5168;47.854;7.944;2024-02-16T11:34:30;3.83;;;2.40;;
10246;SDS011;5168;47.854;7.944;2024-02-16T11:36:58;5.13;;;2.23;;
10246;SDS011;5168;47.854;7.944;2024-02-16T11:39:25;3.13;;;2.13;;
10246;SDS011;5168;47.854;7.944;2024-02-16T11:44:30;3.60;;;2.00;;
10246;SDS011;5168;47.854;7.944;2024-02-16T11:46:57;4.80;;;2.23;;
10246;SDS011;5168;47.854;7.944;2024-02-16T11:49:23;2.70;;;2.30;;
10246;SDS011;5168;47.854;7.944;2024-02-16T11:51:48;5.80;;;2.63;;
10246;SDS011;5168;47.854;7.944;2024-02-16T11:54:14;2.47;;;2.10;;
10246;SDS011;5168;47.854;7.944;2024-02-16T11:56:42;4.90;;;2.40;;
10246;SDS011;5168;47.854;7.944;2024-02-16T11:59:12;5.93;;;2.70;;
10246;SDS011;5168;47.854;7.944;2024-02-16T12:01:52;2.77;;;2.20;;
10246;SDS011;5168;47.854;7.944;2024-02-16T12:04:22;4.73;;;2.30;;
10246;SDS011;5168;47.854;7.944;2024-02-16T12:06:50;3.93;;;2.43;;
10246;SDS011;5168;47.854;7.944;2024-02-16T12:09:17;4.43;;;2.20;;
10246;SDS011;5168;47.854;7.944;2024-02-16T12:11:43;6.47;;;2.50;;
10246;SDS011;5168;47.854;7.944;2024-02-16T12:14:09;3.53;;;2.40;;
10246;SDS011;5168;47.854;7.944;2024-02-16T12:16:36;3.87;;;2.70;;
10246;SDS011;5168;47.854;7.944;2024-02-16T12:19:05;8.07;;;2.70;;
10246;SDS011;5168;47.854;7.944;2024-02-16T12:21:31;5.00;;;2.50;;
10246;SDS011;5168;47.854;7.944;2024-02-16T12:23:57;5.20;;;4.00;;
10246;SDS011;5168;47.854;7.944;2024-02-16T12:26:22;7.03;;;3.93;;
10246;SDS011;5168;47.854;7.944;2024-02-16T12:28:48;5.17;;;2.83;;
10246;SDS011;5168;47.854;7.944;2024-02-16T12:31:18;4.30;;;2.50;;
10246;SDS011;5168;47.854;7.944;2024-02-16T12:33:44;4.93;;;2.60;;
10246;SDS011;5168;47.854;7.944;2024-02-16T12:36:10;2.67;;;2.40;;
10246;SDS011;5168;47.854;7.944;2024-02-16T12:38:36;5.70;;;3.00;;
10246;SDS011;5168;47.854;7.944;2024-02-16T12:41:01;3.83;;;2.57;;
10246;SDS011;5168;47.854;7.944;2024-02-16T12:43:27;3.50;;;2.67;;
10246;SDS011;5168;47.854;7.944;2024-02-16T12:45:53;3.40;;;2.37;;
10246;SDS011;5168;47.854;7.944;2024-02-16T12:48:18;5.57;;;3.60;;
10246;SDS011;5168;47.854;7.944;2024-02-16T12:50:45;6.03;;;3.00;;
10246;SDS011;5168;47.854;7.944;2024-02-16T12:53:12;4.63;;;3.17;;
10246;SDS011;5168;47.854;7.944;2024-02-16T12:55:38;4.33;;;2.93;;
10246;SDS011;5168;47.854;7.944;2024-02-16T12:58:04;8.17;;;4.77;;
10246;SDS011;5168;47.854;7.944;2024-02-16T13:00:29;9.40;;;4.27;;
10246;SDS011;5168;47.854;7.944;2024-02-16T13:02:55;6.43;;;4.10;;
10246;SDS011;5168;47.854;7.944;2024-02-16T13:05:20;6.87;;;3.27;;
10246;SDS011;5168;47.854;7.944;2024-02-16T13:07:46;4.53;;;2.70;;
10246;SDS011;5168;47.854;7.944;2024-02-16T13:10:12;6.70;;;3.17;;
10246;SDS011;5168;47.854;7.944;2024-02-16T13:12:38;6.17;;;2.90;;
10246;SDS011;5168;47.854;7.944;2024-02-16T13:15:04;3.37;;;2.77;;
10246;SDS011;5168;47.854;7.944;2024-02-16T13:17:31;4.60;;;2.80;;
10246;SDS011;5168;47.854;7.944;2024-02-16T13:19:58;5.87;;;2.93;;
10246;SDS011;5168;47.854;7.944;2024-02-16T13:22:31;8.17;;;3.43;;
10246;SDS011;5168;47.854;7.944;2024-02-16T13:25:06;11.63;;;3.50;;
10246;SDS011;5168;47.854;7.944;2024-02-16T13:27:33;5.23;;;3.00;;
10246;SDS011;5168;47.854;7.944;2024-02-16T13:30:02;4.50;;;3.17;;
10246;SDS011;5168;47.854;7.944;2024-02-16T13:32:27;4.30;;;2.70;;
10246;SDS011;5168;47.854;7.944;2024-02-16T13:34:53;4.13;;;2.47;;
10246;SDS011;5168;47.854;7.944;2024-02-16T13:37:18;4.67;;;3.03;;
10246;SDS011;5168;47.854;7.944;2024-02-16T13:39:44;3.43;;;2.73;;
10246;SDS011;5168;47.854;7.944;2024-02-16T13:42:11;4.67;;;2.83;;
10246;SDS011;5168;47.854;7.944;2024-02-16T13:44:37;3.67;;;2.70;;
10246;SDS011;5168;47.854;7.944;2024-02-16T13:47:04;4.27;;;3.10;;
10246;SDS011;5168;47.854;7.944;2024-02-16T13:49:29;5.20;;;2.93;;
10246;SDS011;5168;47.854;7.944;2024-02-16T13:51:55;3.53;;;2.83;;
10246;SDS011;5168;47.854;7.944;2024-02-16T13:54:24;4.40;;;2.87;;
10246;SDS011;5168;47.854;7.944;2024-02-16T13:56:49;3.97;;;2.80;;
10246;SDS011;5168;47.854;7.944;2024-02-16T13:59:15;8.23;;;3.27;;
10246;SDS011;5168;47.854;7.944;2024-02-16T14:01:41;4.07;;;2.70;;
10246;SDS011;5168;47.854;7.944;2024-02-16T14:04:06;6.20;;;2.73;;
10246;SDS011;5168;47.854;7.944;2024-02-16T14:06:32;3.40;;;2.53;;
10246;SDS011;5168;47.854;7.944;2024-02-16T14:08:58;4.00;;;2.70;;
10246;SDS011;5168;47.854;7.944;2024-02-16T14:11:24;3.13;;;2.30;;
10246;SDS011;5168;47.854;7.944;2024-02-16T14:13:50;3.63;;;2.70;;
10246;SDS011;5168;47.854;7.944;2024-02-16T14:16:16;5.50;;;2.80;;
10246;SDS011;5168;47.854;7.944;2024-02-16T14:18:41;4.47;;;2.80;;
10246;SDS011;5168;47.854;7.944;2024-02-16T14:21:07;5.77;;;2.60;;
10246;SDS011;5168;47.854;7.944;2024-02-16T14:23:33;5.90;;;3.30;;
10246;SDS011;5168;47.854;7.944;2024-02-16T14:25:59;5.43;;;2.90;;
10246;SDS011;5168;47.854;7.944;2024-02-16T14:28:25;4.63;;;3.10;;
10246;SDS011;5168;47.854;7.944;2024-02-16T14:30:50;7.83;;;2.53;;
10246;SDS011;5168;47.854;7.944;2024-02-16T14:33:16;3.73;;;2.60;;
10246;SDS011;5168;47.854;7.944;2024-02-16T14:35:42;4.50;;;2.70;;
10246;SDS011;5168;47.854;7.944;2024-02-16T14:38:08;4.87;;;2.57;;
10246;SDS011;5168;47.854;7.944;2024-02-16T14:40:34;4.60;;;2.63;;
10246;SDS011;5168;47.854;7.944;2024-02-16T14:43:00;4.37;;;2.77;;
10246;SDS011;5168;47.854;7.944;2024-02-16T14:45:26;2.53;;;2.20;;
10246;SDS011;5168;47.854;7.944;2024-02-16T14:47:51;2.63;;;2.00;;
10246;SDS011;5168;47.854;7.944;2024-02-16T14:50:17;4.07;;;2.40;;
10246;SDS011;5168;47.854;7.944;2024-02-16T14:52:43;3.60;;;2.40;;
10246;SDS011;5168;47.854;7.944;2024-02-16T14:55:10;3.70;;;2.70;;
10246;SDS011;5168;47.854;7.944;2024-02-16T14:57:39;7.13;;;3.00;;
10246;SDS011;5168;47.854;7.944;2024-02-16T15:00:06;5.57;;;2.80;;
10246;SDS011;5168;47.854;7.944;2024-02-16T15:02:32;2.90;;;2.70;;